createdAt,value
2023-02-06T00:02:36.640Z,25.45
2023-02-06T00:05:40.460Z,26.05
2023-02-06T00:08:43.714Z,23.20
2023-02-06T00:11:47.154Z,23.10
2023-02-06T00:14:50.349Z,15.38
2023-02-06T00:17:53.775Z,21.08
2023-02-06T00:20:56.823Z,23.17
2023-02-06T00:24:01.911Z,23.25
2023-02-06T00:27:05.431Z,16.92
2023-02-06T00:30:10.542Z,14.68
2023-02-06T00:33:13.848Z,10.15
2023-02-06T00:36:18.284Z,7.87
2023-02-06T00:39:21.518Z,6.10
2023-02-06T00:42:24.952Z,4.40
2023-02-06T00:45:28.182Z,5.00
2023-02-06T00:48:31.707Z,4.65
2023-02-06T00:51:38.912Z,5.25
2023-02-06T00:54:42.454Z,4.32
2023-02-06T00:57:45.672Z,6.20
2023-02-06T01:00:50.238Z,4.47
2023-02-06T01:03:54.048Z,9.13
2023-02-06T01:06:57.356Z,11.20
2023-02-06T01:10:00.564Z,5.30
2023-02-06T01:13:04.262Z,8.35
2023-02-06T01:16:09.315Z,9.57
2023-02-06T01:19:13.990Z,5.68
2023-02-06T01:22:17.147Z,6.82
2023-02-06T01:25:21.597Z,7.12
2023-02-06T01:28:24.829Z,19.02
2023-02-06T01:31:30.396Z,13.20
2023-02-06T01:34:33.892Z,11.95
2023-02-06T01:37:37.997Z,12.73
2023-02-06T01:40:42.566Z,8.90
2023-02-06T01:44:17.346Z,14.23
2023-02-06T01:47:20.433Z,10.23
2023-02-06T01:50:24.319Z,12.70
2023-02-06T01:53:28.636Z,14.52
2023-02-06T01:56:35.140Z,15.20
2023-02-06T01:59:40.129Z,12.40
2023-02-06T02:02:45.525Z,10.05
2023-02-06T02:05:49.912Z,11.75
2023-02-06T02:11:59.781Z,15.07
2023-02-06T02:15:03.202Z,17.77
2023-02-06T02:18:13.487Z,15.63
2023-02-06T02:21:21.549Z,9.30
2023-02-06T02:25:02.261Z,7.00
2023-02-06T02:28:05.272Z,11.57
2023-02-06T02:31:30.684Z,10.18
2023-02-06T02:34:57.739Z,7.15
2023-02-06T02:38:18.551Z,7.75
2023-02-06T02:41:47.284Z,8.25
2023-02-06T02:44:55.037Z,8.63
2023-02-06T02:48:28.924Z,8.13
2023-02-06T02:51:33.783Z,6.15
2023-02-06T02:54:37.286Z,6.37
2023-02-06T02:57:41.347Z,3.55
2023-02-06T03:00:56.706Z,6.03
2023-02-06T03:04:05.109Z,5.68
2023-02-06T03:07:46.220Z,5.65
2023-02-06T03:11:14.022Z,8.88
2023-02-06T03:14:49.025Z,12.55
2023-02-06T03:18:20.395Z,9.13
2023-02-06T03:21:24.077Z,8.20
2023-02-06T03:24:33.407Z,14.27
2023-02-06T03:27:38.336Z,12.37
2023-02-06T03:30:45.481Z,9.18
2023-02-06T03:34:09.073Z,8.18
2023-02-06T03:37:13.311Z,6.93
2023-02-06T03:40:17.631Z,8.38
2023-02-06T03:43:23.114Z,6.33
2023-02-06T03:46:28.305Z,5.32
2023-02-06T03:52:38.804Z,5.30
2023-02-06T03:55:43.406Z,7.72
2023-02-06T03:58:46.754Z,7.80
2023-02-06T04:01:53.791Z,8.20
2023-02-06T04:04:57.136Z,14.52
2023-02-06T04:08:00.306Z,16.70
2023-02-06T04:11:03.984Z,9.20
2023-02-06T04:14:07.200Z,11.02
2023-02-06T04:17:11.618Z,10.30
2023-02-06T04:20:15.014Z,13.57
2023-02-06T04:23:21.926Z,14.43
2023-02-06T04:26:25.102Z,9.30
2023-02-06T04:29:28.644Z,15.85
2023-02-06T04:32:32.256Z,13.60
2023-02-06T04:35:37.413Z,13.40
2023-02-06T04:38:53.006Z,15.18
2023-02-06T04:41:58.455Z,15.45
2023-02-06T04:45:01.452Z,13.38
2023-02-06T04:48:05.044Z,17.08
2023-02-06T04:51:08.335Z,13.13
2023-02-06T04:54:15.508Z,13.10
2023-02-06T04:57:18.818Z,10.25
2023-02-06T05:00:23.442Z,11.95
2023-02-06T05:03:29.680Z,13.15
2023-02-06T05:06:34.703Z,18.55
2023-02-06T05:09:39.239Z,12.07
2023-02-06T05:12:42.797Z,13.82
2023-02-06T05:15:46.584Z,14.00
2023-02-06T05:18:55.976Z,21.40
2023-02-06T05:21:59.164Z,25.77
2023-02-06T05:25:03.978Z,17.70
2023-02-06T05:28:08.884Z,13.52
2023-02-06T05:31:18.537Z,13.25
2023-02-06T05:34:21.606Z,12.40
2023-02-06T05:37:26.049Z,17.08
2023-02-06T05:40:29.372Z,13.18
2023-02-06T05:43:33.947Z,16.62
2023-02-06T05:46:38.174Z,17.75
2023-02-06T05:49:44.141Z,15.32
2023-02-06T05:52:47.282Z,13.90
2023-02-06T05:55:50.820Z,14.23
2023-02-06T05:58:54.004Z,13.10
2023-02-06T06:01:57.878Z,14.48
2023-02-06T06:05:01.498Z,15.35
2023-02-06T06:08:04.827Z,12.75
2023-02-06T06:11:08.674Z,11.90
2023-02-06T06:14:12.435Z,10.38
2023-02-06T06:17:16.235Z,16.23
2023-02-06T06:20:19.525Z,20.12
2023-02-06T06:23:24.185Z,18.00
2023-02-06T06:26:29.050Z,17.05
2023-02-06T06:29:32.749Z,15.90
2023-02-06T06:32:36.864Z,18.23
2023-02-06T06:38:45.024Z,16.55
2023-02-06T06:41:48.566Z,18.35
2023-02-06T06:44:51.759Z,17.83
2023-02-06T06:47:55.372Z,19.33
2023-02-06T06:50:58.618Z,15.98
2023-02-06T06:54:02.436Z,15.80
2023-02-06T06:57:05.691Z,15.52
2023-02-06T07:00:10.152Z,19.23
2023-02-06T07:03:13.302Z,45.65
2023-02-06T07:06:17.080Z,32.75
2023-02-06T07:09:20.516Z,34.28
2023-02-06T07:12:23.942Z,41.08
2023-02-06T07:15:28.263Z,32.33
2023-02-06T07:18:31.717Z,29.03
2023-02-06T07:21:35.336Z,25.08
2023-02-06T07:24:43.244Z,32.40
2023-02-06T07:27:59.318Z,27.37
2023-02-06T07:31:04.781Z,40.95
2023-02-06T07:34:08.039Z,38.50
2023-02-06T07:37:11.513Z,45.47
2023-02-06T07:40:14.744Z,54.08
2023-02-06T07:43:27.484Z,41.00
2023-02-06T07:46:34.915Z,36.83
2023-02-06T07:49:38.355Z,43.53
2023-02-06T07:52:41.500Z,43.35
2023-02-06T07:55:44.998Z,41.95
2023-02-06T07:59:02.343Z,40.15
2023-02-06T08:02:05.475Z,29.73
2023-02-06T08:05:09.132Z,38.70
2023-02-06T08:08:12.248Z,34.65
2023-02-06T08:11:18.865Z,32.10
2023-02-06T08:14:22.102Z,26.98
2023-02-06T08:17:25.552Z,23.02
2023-02-06T08:20:28.794Z,17.08
2023-02-06T08:23:32.606Z,18.05
2023-02-06T08:26:35.809Z,16.40
2023-02-06T08:29:42.719Z,17.85
2023-02-06T08:32:45.839Z,19.48
2023-02-06T08:35:49.219Z,21.70
2023-02-06T08:38:52.664Z,18.62
2023-02-06T08:41:56.176Z,19.55
2023-02-06T08:44:59.400Z,20.37
2023-02-06T08:48:03.697Z,23.40
2023-02-06T08:51:08.755Z,28.27
2023-02-06T08:54:15.927Z,21.95
2023-02-06T08:57:20.595Z,25.15
2023-02-06T09:00:25.749Z,24.87
2023-02-06T09:03:28.959Z,24.80
2023-02-06T09:06:35.525Z,10.40
2023-02-06T09:09:38.918Z,24.15
2023-02-06T09:12:44.122Z,22.52
2023-02-06T09:15:54.373Z,25.77
2023-02-06T09:19:01.579Z,10.23
2023-02-06T09:25:31.980Z,17.50
2023-02-06T09:28:35.491Z,17.80
2023-02-06T09:31:41.417Z,20.55
2023-02-06T09:34:45.192Z,23.45
2023-02-06T09:37:48.904Z,15.52
2023-02-06T09:40:53.854Z,10.32
2023-02-06T09:44:00.070Z,15.35
2023-02-06T09:47:07.767Z,5.62
2023-02-06T09:50:34.102Z,21.70
2023-02-06T09:53:50.567Z,16.95
2023-02-06T09:56:57.242Z,8.98
2023-02-06T10:00:05.045Z,18.98
2023-02-06T10:03:34.157Z,12.82
2023-02-06T10:06:48.261Z,14.77
2023-02-06T10:10:11.535Z,18.62
2023-02-06T10:13:26.810Z,17.00
2023-02-06T10:16:42.586Z,14.93
2023-02-06T10:19:58.280Z,18.85
2023-02-06T10:23:14.415Z,18.95
2023-02-06T10:26:18.931Z,10.77
2023-02-06T10:29:27.145Z,7.15
2023-02-06T10:32:52.372Z,20.77
2023-02-06T10:36:01.759Z,23.80
2023-02-06T10:39:23.845Z,22.65
2023-02-06T10:42:47.326Z,16.40
2023-02-06T10:46:20.739Z,16.95
2023-02-06T10:49:35.182Z,27.02
2023-02-06T10:52:39.454Z,26.67
2023-02-06T10:55:51.309Z,22.40
2023-02-06T10:59:06.749Z,14.45
2023-02-06T11:02:12.104Z,11.23
2023-02-06T11:08:40.924Z,13.60
2023-02-06T11:14:56.393Z,20.48
2023-02-06T11:18:04.269Z,15.43
2023-02-06T11:21:09.857Z,11.88
2023-02-06T11:24:16.146Z,18.23
2023-02-06T11:27:21.154Z,13.48
2023-02-06T11:30:37.338Z,10.75
2023-02-06T11:33:51.353Z,15.60
2023-02-06T11:36:57.564Z,17.48
2023-02-06T11:40:18.620Z,18.98
2023-02-06T11:43:24.592Z,13.00
2023-02-06T11:46:32.776Z,11.43
2023-02-06T11:49:36.224Z,17.75
2023-02-06T11:52:40.701Z,16.30
2023-02-06T11:55:46.096Z,20.55
2023-02-06T11:59:19.255Z,17.70
2023-02-06T12:02:27.483Z,18.25
2023-02-06T12:05:35.283Z,15.45
2023-02-06T12:09:02.565Z,18.33
2023-02-06T12:12:22.157Z,14.48
2023-02-06T12:15:53.863Z,16.85
2023-02-06T12:18:59.270Z,13.02
2023-02-06T12:22:12.794Z,18.27
2023-02-06T12:25:30.401Z,14.13
2023-02-06T12:28:49.771Z,18.23
2023-02-06T12:32:04.665Z,18.95
2023-02-06T12:35:44.117Z,6.55
2023-02-06T12:38:53.202Z,10.27
2023-02-06T12:42:07.186Z,13.60
2023-02-06T12:45:35.595Z,14.82
2023-02-06T12:49:00.297Z,12.55
2023-02-06T12:52:45.934Z,14.87
2023-02-06T12:55:52.801Z,9.43
2023-02-06T12:58:56.382Z,13.20
2023-02-06T13:02:10.842Z,13.60
2023-02-06T13:05:36.556Z,13.45
2023-02-06T13:08:58.996Z,10.20
2023-02-06T13:12:29.298Z,13.80
2023-02-06T13:15:38.360Z,13.45
2023-02-06T13:18:42.073Z,12.05
2023-02-06T13:21:54.773Z,14.65
2023-02-06T13:24:58.720Z,12.60
2023-02-06T13:28:14.083Z,9.25
2023-02-06T13:34:24.157Z,9.82
2023-02-06T13:37:46.292Z,8.18
2023-02-06T13:41:16.690Z,10.48
2023-02-06T13:44:34.472Z,11.32
2023-02-06T13:48:01.009Z,10.00
2023-02-06T13:51:23.040Z,9.52
2023-02-06T13:54:50.828Z,10.65
2023-02-06T13:58:14.036Z,10.05
2023-02-06T14:01:36.349Z,10.90
2023-02-06T14:04:41.725Z,11.48
2023-02-06T14:11:31.433Z,9.10
2023-02-06T14:14:59.326Z,7.18
2023-02-06T14:18:21.048Z,9.27
2023-02-06T14:21:45.652Z,11.48
2023-02-06T14:25:34.362Z,6.10
2023-02-06T14:28:37.416Z,11.20
2023-02-06T14:32:03.532Z,11.95
2023-02-06T14:35:14.037Z,8.65
2023-02-06T14:38:45.196Z,8.23
2023-02-06T14:41:48.463Z,11.20
2023-02-06T14:44:57.327Z,10.10
2023-02-06T14:48:02.291Z,10.30
2023-02-06T14:54:27.523Z,11.85
2023-02-06T14:57:31.983Z,12.68
2023-02-06T15:00:35.129Z,14.23
2023-02-06T15:03:40.315Z,12.82
2023-02-06T15:06:51.413Z,16.05
2023-02-06T15:10:12.412Z,12.80
2023-02-06T15:13:35.022Z,16.27
2023-02-06T15:16:51.557Z,14.87
2023-02-06T15:19:54.824Z,13.68
2023-02-06T15:23:16.542Z,11.12
2023-02-06T15:26:30.096Z,12.32
2023-02-06T15:29:33.653Z,12.07
2023-02-06T15:32:39.747Z,11.95
2023-02-06T15:35:49.643Z,16.10
2023-02-06T15:38:53.120Z,12.35
2023-02-06T15:41:56.505Z,10.15
2023-02-06T15:45:01.258Z,13.32
2023-02-06T15:48:18.488Z,12.93
2023-02-06T15:51:31.354Z,19.12
2023-02-06T15:54:35.006Z,16.48
2023-02-06T15:57:41.209Z,16.70
2023-02-06T16:00:52.037Z,26.60
2023-02-06T16:03:59.198Z,29.83
2023-02-06T16:07:27.748Z,17.73
2023-02-06T16:10:35.794Z,16.80
2023-02-06T16:13:39.473Z,17.02
2023-02-06T16:16:56.000Z,22.62
2023-02-06T16:20:04.737Z,21.05
2023-02-06T16:23:28.895Z,14.52
2023-02-06T16:26:43.331Z,20.33
2023-02-06T16:29:49.747Z,19.83
2023-02-06T16:32:55.296Z,20.80
2023-02-06T16:35:59.245Z,20.48
2023-02-06T16:39:04.643Z,16.23
2023-02-06T16:42:13.398Z,19.27
2023-02-06T16:45:20.748Z,21.50
2023-02-06T16:48:24.305Z,49.03
2023-02-06T16:51:30.791Z,65.07
2023-02-06T16:54:34.399Z,80.15
2023-02-06T16:57:41.935Z,79.53
2023-02-06T17:00:45.592Z,65.20
2023-02-06T17:03:49.935Z,59.30
2023-02-06T17:06:53.708Z,36.57
2023-02-06T17:09:59.375Z,28.98
2023-02-06T17:13:04.214Z,29.37
2023-02-06T17:16:17.748Z,31.60
2023-02-06T17:19:22.327Z,33.83
2023-02-06T17:22:26.116Z,47.53
2023-02-06T17:25:30.554Z,43.42
2023-02-06T17:28:37.897Z,43.47
2023-02-06T17:31:41.513Z,38.83
2023-02-06T17:34:46.691Z,30.00
2023-02-06T17:37:52.143Z,27.40
2023-02-06T17:40:55.996Z,25.37
2023-02-06T17:43:59.922Z,26.00
2023-02-06T17:47:04.762Z,35.28
2023-02-06T17:50:14.568Z,32.83
2023-02-06T17:53:18.805Z,39.35
2023-02-06T17:56:23.473Z,32.15
2023-02-06T17:59:27.984Z,35.80
2023-02-06T18:02:32.761Z,32.22
2023-02-06T18:05:38.719Z,36.38
2023-02-06T18:08:46.239Z,29.23
2023-02-06T18:11:50.608Z,24.17
2023-02-06T18:14:57.036Z,22.87
2023-02-06T18:18:25.632Z,31.00
2023-02-06T18:21:31.251Z,28.80
2023-02-06T18:24:36.330Z,21.05
2023-02-06T18:27:42.680Z,28.35
2023-02-06T18:30:46.815Z,39.17
2023-02-06T18:33:50.478Z,39.45
2023-02-06T18:36:58.021Z,31.77
2023-02-06T18:40:03.297Z,32.35
2023-02-06T18:43:09.034Z,26.83
2023-02-06T18:46:13.741Z,32.92
2023-02-06T18:52:39.421Z,37.85
2023-02-06T18:55:46.416Z,32.17
2023-02-06T18:58:51.133Z,38.90
2023-02-06T19:01:58.982Z,27.27
2023-02-06T19:05:04.101Z,22.58
2023-02-06T19:08:11.991Z,18.73
2023-02-06T19:11:16.789Z,21.58
2023-02-06T19:14:25.771Z,19.85
2023-02-06T19:17:30.523Z,16.48
2023-02-06T19:20:35.494Z,40.90
2023-02-06T19:23:40.828Z,41.20
2023-02-06T19:26:46.850Z,34.03
2023-02-06T19:29:51.484Z,42.08
2023-02-06T19:32:55.375Z,48.10
2023-02-06T19:36:00.156Z,37.70
2023-02-06T19:39:08.303Z,28.10
2023-02-06T19:42:16.805Z,17.27
2023-02-06T19:45:28.712Z,20.60
2023-02-06T19:48:34.684Z,31.17
2023-02-06T19:51:42.312Z,48.05
2023-02-06T19:54:48.228Z,39.63
2023-02-06T19:57:53.480Z,31.70
2023-02-06T20:04:03.988Z,37.60
2023-02-06T20:07:08.448Z,35.58
2023-02-06T20:10:13.571Z,50.40
2023-02-06T20:13:19.966Z,50.67
2023-02-06T20:16:29.139Z,50.40
2023-02-06T20:19:36.021Z,46.67
2023-02-06T20:22:41.060Z,42.22
2023-02-06T20:25:46.391Z,27.63
2023-02-06T20:28:51.578Z,27.25
2023-02-06T20:31:57.843Z,23.45
2023-02-06T20:35:04.025Z,27.10
2023-02-06T20:38:10.330Z,37.50
2023-02-06T20:41:15.086Z,42.97
2023-02-06T20:44:21.259Z,33.00
2023-02-06T20:47:26.456Z,23.70
2023-02-06T20:50:31.582Z,22.45
2023-02-06T20:53:37.810Z,29.58
2023-02-06T20:56:45.801Z,27.42
2023-02-06T20:59:50.060Z,25.58
2023-02-06T21:02:54.636Z,58.78
2023-02-06T21:05:59.974Z,26.05
2023-02-06T21:09:06.571Z,27.27
2023-02-06T21:12:11.353Z,26.95
2023-02-06T21:15:16.206Z,22.47
2023-02-06T21:18:22.405Z,21.25
2023-02-06T21:21:27.150Z,18.33
2023-02-06T21:24:31.338Z,20.30
2023-02-06T21:27:34.609Z,18.12
2023-02-06T21:30:38.515Z,21.30
2023-02-06T21:33:42.344Z,19.40
2023-02-06T21:36:46.179Z,24.20
2023-02-06T21:39:49.514Z,28.30
2023-02-06T21:42:53.085Z,32.28
2023-02-06T21:45:57.957Z,32.63
2023-02-06T21:49:01.589Z,30.25
2023-02-06T21:52:04.893Z,23.38
2023-02-06T21:55:08.562Z,22.08
2023-02-06T21:58:16.210Z,27.80
2023-02-06T22:01:26.470Z,28.05
2023-02-06T22:04:29.876Z,23.83
2023-02-06T22:07:37.686Z,19.67
2023-02-06T22:10:41.063Z,23.15
2023-02-06T22:13:44.918Z,26.75
2023-02-06T22:16:48.474Z,34.75
2023-02-06T22:19:53.776Z,31.75
2023-02-06T22:22:57.382Z,26.27
2023-02-06T22:26:00.753Z,31.60
2023-02-06T22:29:05.731Z,22.00
2023-02-06T22:32:09.140Z,32.38
2023-02-06T22:35:13.027Z,23.23
2023-02-06T22:38:17.442Z,17.52
2023-02-06T22:41:22.361Z,20.23
2023-02-06T22:44:25.633Z,21.00
2023-02-06T22:47:30.259Z,22.30
2023-02-06T22:50:35.946Z,20.85
2023-02-06T22:53:41.564Z,20.65
2023-02-06T22:56:45.067Z,18.80
2023-02-06T22:59:48.709Z,21.92
2023-02-06T23:02:51.870Z,33.15
2023-02-06T23:05:55.706Z,35.30
2023-02-06T23:08:59.084Z,28.08
2023-02-06T23:12:03.708Z,21.20
2023-02-06T23:15:07.174Z,22.48
2023-02-06T23:18:10.625Z,24.85
2023-02-06T23:21:14.773Z,20.58
2023-02-06T23:24:18.570Z,27.52
2023-02-06T23:27:21.588Z,19.05
2023-02-06T23:30:25.495Z,24.20
2023-02-06T23:33:28.786Z,21.30
2023-02-06T23:36:33.527Z,25.05
2023-02-06T23:39:36.555Z,20.35
2023-02-06T23:42:40.783Z,23.67
2023-02-06T23:45:44.029Z,22.10
2023-02-06T23:48:49.768Z,25.77
2023-02-06T23:51:52.999Z,27.05
2023-02-06T23:54:56.453Z,29.30
2023-02-06T23:57:59.590Z,24.45
